createdAt,value
2019-04-28T00:00:21.464Z,16.07
2019-04-28T00:01:21.129Z,16.57
2019-04-28T00:02:22.422Z,17.27
2019-04-28T00:03:21.039Z,16.27
2019-04-28T00:04:21.492Z,15.77
2019-04-28T00:05:21.170Z,16.16
2019-04-28T00:06:21.199Z,17.76
2019-04-28T00:07:21.587Z,15.77
2019-04-28T00:08:20.978Z,17.07
2019-04-28T00:09:21.367Z,16.57
2019-04-28T00:10:21.034Z,15.97
2019-04-28T00:11:21.627Z,16.27
2019-04-28T00:12:22.797Z,16.77
2019-04-28T00:13:20.990Z,15.77
2019-04-28T00:14:21.889Z,16.36
2019-04-28T00:15:20.939Z,16.36
2019-04-28T00:16:22.849Z,16.56
2019-04-28T00:17:21.248Z,16.27
2019-04-28T00:18:21.941Z,16.07
2019-04-28T00:19:21.017Z,16.16
2019-04-28T00:20:21.402Z,16.27
2019-04-28T00:21:20.967Z,16.47
2019-04-28T00:22:20.980Z,16.36
2019-04-28T00:23:21.678Z,16.47
2019-04-28T00:24:21.071Z,16.66
2019-04-28T00:25:21.487Z,16.66
2019-04-28T00:26:21.204Z,16.27
2019-04-28T00:27:21.637Z,16.27
2019-04-28T00:28:33.489Z,16.47
2019-04-28T00:29:21.096Z,16.36
2019-04-28T00:30:21.744Z,16.36
2019-04-28T00:31:21.269Z,16.96
2019-04-28T00:32:21.079Z,16.56
2019-04-28T00:33:22.621Z,16.47
2019-04-28T00:34:21.229Z,16.27
2019-04-28T00:35:21.537Z,16.16
2019-04-28T00:36:21.588Z,16.36
2019-04-28T00:37:21.174Z,16.96
2019-04-28T00:38:21.563Z,16.47
2019-04-28T00:39:22.517Z,16.77
2019-04-28T00:40:21.752Z,16.56
2019-04-28T00:41:21.375Z,16.56
2019-04-28T00:42:22.633Z,16.77
2019-04-28T00:43:21.801Z,16.36
2019-04-28T00:44:21.804Z,16.77
2019-04-28T00:45:21.512Z,16.27
2019-04-28T00:46:21.126Z,16.27
2019-04-28T00:47:21.017Z,16.56
2019-04-28T00:48:21.001Z,16.66
2019-04-28T00:49:21.495Z,16.66
2019-04-28T00:50:21.728Z,15.77
2019-04-28T00:51:21.327Z,16.56
2019-04-28T00:52:22.159Z,16.47
2019-04-28T00:53:20.652Z,15.67
2019-04-28T00:54:21.849Z,15.47
2019-04-28T00:55:21.022Z,15.47
2019-04-28T00:56:21.812Z,15.97
2019-04-28T00:57:21.017Z,15.77
2019-04-28T00:58:20.935Z,15.97
2019-04-28T00:59:31.606Z,15.26
2019-04-28T01:00:21.518Z,15.47
2019-04-28T01:01:21.352Z,15.77
2019-04-28T01:02:21.170Z,15.86
2019-04-28T01:03:21.505Z,16.16
2019-04-28T01:04:21.904Z,15.97
2019-04-28T01:05:21.357Z,15.56
2019-04-28T01:06:22.255Z,15.56
2019-04-28T01:07:21.278Z,15.56
2019-04-28T01:08:20.946Z,15.56
2019-04-28T01:09:21.856Z,15.86
2019-04-28T01:10:21.035Z,15.67
2019-04-28T01:11:21.764Z,15.97
2019-04-28T01:12:21.233Z,15.56
2019-04-28T01:13:21.443Z,15.67
2019-04-28T01:14:21.317Z,15.17
2019-04-28T01:15:20.279Z,14.97
2019-04-28T01:16:20.287Z,14.67
2019-04-28T01:17:20.229Z,15.17
2019-04-28T01:18:21.810Z,14.97
2019-04-28T01:19:20.344Z,14.97
2019-04-28T01:20:20.204Z,14.97
2019-04-28T01:21:20.374Z,14.97
2019-04-28T01:22:20.284Z,14.97
2019-04-28T01:23:20.396Z,14.97
2019-04-28T01:24:20.173Z,14.97
2019-04-28T01:25:20.417Z,14.77
2019-04-28T01:26:20.154Z,15.37
2019-04-28T01:27:20.431Z,14.97
2019-04-28T01:28:21.337Z,14.97
2019-04-28T01:29:20.098Z,14.77
2019-04-28T01:30:32.109Z,15.26
2019-04-28T01:31:21.252Z,15.07
2019-04-28T01:32:20.436Z,15.07
2019-04-28T01:33:20.603Z,15.37
2019-04-28T01:34:20.536Z,15.47
2019-04-28T01:35:21.065Z,15.26
2019-04-28T01:36:20.343Z,15.26
2019-04-28T01:37:20.011Z,15.37
2019-04-28T01:38:20.446Z,15.26
2019-04-28T01:39:20.154Z,15.26
2019-04-28T01:40:20.633Z,15.26
2019-04-28T01:41:19.975Z,15.56
2019-04-28T01:42:20.445Z,15.17
2019-04-28T01:43:19.948Z,15.56
2019-04-28T01:44:19.991Z,15.17
2019-04-28T01:45:20.578Z,15.26
2019-04-28T01:46:19.975Z,15.56
2019-04-28T01:47:20.477Z,15.56
2019-04-28T01:48:20.011Z,15.56
2019-04-28T01:49:19.887Z,15.37
2019-04-28T01:50:20.454Z,15.37
2019-04-28T01:51:20.889Z,15.26
2019-04-28T01:52:20.346Z,15.37
2019-04-28T01:53:20.019Z,15.56
2019-04-28T01:54:20.045Z,15.77
2019-04-28T01:55:20.090Z,14.87
2019-04-28T01:56:20.459Z,15.17
2019-04-28T01:57:21.469Z,15.07
2019-04-28T01:58:20.473Z,14.97
2019-04-28T01:59:20.119Z,15.26
2019-04-28T02:00:24.966Z,15.37
2019-04-28T02:02:33.621Z,15.17
2019-04-28T02:03:33.569Z,15.17
2019-04-28T02:04:33.564Z,15.17
2019-04-28T02:05:33.547Z,15.17
2019-04-28T02:06:33.536Z,15.26
2019-04-28T02:07:33.533Z,15.37
2019-04-28T02:08:33.534Z,15.26
2019-04-28T02:09:33.504Z,15.26
2019-04-28T02:10:33.494Z,15.26
2019-04-28T02:11:33.482Z,15.47
2019-04-28T02:12:33.476Z,14.77
2019-04-28T02:13:33.467Z,15.37
2019-04-28T02:14:33.492Z,15.26
2019-04-28T02:15:33.444Z,15.37
2019-04-28T02:16:33.432Z,15.26
2019-04-28T02:17:33.419Z,15.07
2019-04-28T02:18:33.409Z,14.67
2019-04-28T02:19:33.399Z,15.07
2019-04-28T02:20:33.429Z,14.97
2019-04-28T02:21:33.377Z,14.77
2019-04-28T02:22:33.363Z,14.67
2019-04-28T02:23:33.358Z,14.67
2019-04-28T02:24:33.344Z,14.78
2019-04-28T02:25:33.337Z,14.87
2019-04-28T02:26:33.334Z,14.87
2019-04-28T02:27:33.313Z,14.87
2019-04-28T02:28:33.301Z,14.87
2019-04-28T02:29:33.295Z,14.97
2019-04-28T02:30:47.754Z,14.77
2019-04-28T02:31:34.345Z,14.97
2019-04-28T02:32:40.818Z,15.07
2019-04-28T02:33:33.244Z,14.77
2019-04-28T02:34:33.241Z,15.07
2019-04-28T02:35:34.244Z,14.67
2019-04-28T02:36:33.220Z,14.67
2019-04-28T02:37:33.242Z,15.17
2019-04-28T02:38:34.356Z,14.67
2019-04-28T02:39:33.181Z,14.87
2019-04-28T02:40:33.179Z,15.07
2019-04-28T02:41:33.851Z,14.67
2019-04-28T02:42:33.152Z,14.67
2019-04-28T02:43:33.176Z,14.87
2019-04-28T02:44:35.149Z,15.07
2019-04-28T02:45:33.122Z,15.07
2019-04-28T02:46:33.105Z,14.87
2019-04-28T02:47:34.164Z,14.87
2019-04-28T02:48:33.086Z,15.26
2019-04-28T02:49:33.106Z,14.87
2019-04-28T02:50:33.247Z,15.26
2019-04-28T02:51:33.055Z,15.07
2019-04-28T02:52:33.046Z,15.26
2019-04-28T02:53:33.685Z,15.26
2019-04-28T02:54:33.020Z,15.17
2019-04-28T02:55:33.050Z,15.37
2019-04-28T02:56:33.005Z,14.77
2019-04-28T02:57:32.990Z,15.37
2019-04-28T02:58:32.978Z,14.87
2019-04-28T02:59:32.969Z,15.26
2019-04-28T03:00:32.959Z,15.07
2019-04-28T03:01:32.996Z,15.07
2019-04-28T03:02:32.934Z,14.97
2019-04-28T03:03:45.102Z,15.08
2019-04-28T03:04:32.915Z,15.07
2019-04-28T03:05:33.520Z,14.97
2019-04-28T03:06:32.892Z,14.67
2019-04-28T03:07:32.920Z,14.87
2019-04-28T03:08:32.878Z,14.97
2019-04-28T03:09:32.864Z,14.87
2019-04-28T03:10:32.852Z,15.07
2019-04-28T03:11:32.836Z,15.07
2019-04-28T03:12:32.837Z,15.07
2019-04-28T03:13:32.850Z,14.87
2019-04-28T03:14:32.813Z,14.87
2019-04-28T03:15:32.796Z,15.07
2019-04-28T03:16:32.794Z,15.47
2019-04-28T03:17:32.781Z,14.97
2019-04-28T03:18:32.763Z,14.97
2019-04-28T03:19:34.082Z,15.47
2019-04-28T03:20:32.739Z,15.07
2019-04-28T03:21:32.740Z,15.07
2019-04-28T03:22:33.747Z,14.97
2019-04-28T03:23:32.708Z,14.77
2019-04-28T03:24:32.692Z,14.87
2019-04-28T03:25:33.574Z,15.37
2019-04-28T03:26:32.683Z,14.57
2019-04-28T03:27:32.665Z,14.77
2019-04-28T03:28:33.670Z,14.77
2019-04-28T03:29:32.638Z,14.77
2019-04-28T03:30:33.983Z,14.57
2019-04-28T03:32:00.909Z,14.77
2019-04-28T03:32:45.036Z,14.97
2019-04-28T03:33:41.494Z,15.17
2019-04-28T03:34:44.592Z,14.47
2019-04-28T03:35:32.989Z,14.77
2019-04-28T03:36:33.522Z,14.97
2019-04-28T03:37:32.557Z,14.97
2019-04-28T03:38:32.545Z,14.77
2019-04-28T03:39:32.536Z,14.77
2019-04-28T03:40:33.744Z,14.76
2019-04-28T03:41:32.516Z,14.67
2019-04-28T03:42:32.514Z,14.77
2019-04-28T03:43:32.491Z,15.07
2019-04-28T03:44:33.866Z,15.07
2019-04-28T03:45:32.466Z,14.67
2019-04-28T03:46:32.469Z,15.46
2019-04-28T03:47:32.492Z,14.67
2019-04-28T03:48:33.763Z,14.47
2019-04-28T03:49:32.468Z,14.77
2019-04-28T03:50:32.413Z,14.47
2019-04-28T03:51:32.403Z,14.57
2019-04-28T03:52:32.390Z,14.77
2019-04-28T03:53:32.413Z,14.57
2019-04-28T03:54:32.369Z,14.57
2019-04-28T03:55:34.924Z,14.67
2019-04-28T03:56:32.353Z,14.57
2019-04-28T03:57:32.340Z,14.67
2019-04-28T03:58:32.359Z,14.57
2019-04-28T03:59:32.323Z,14.56
2019-04-28T04:00:32.310Z,14.77
2019-04-28T04:01:32.295Z,14.57
2019-04-28T04:02:32.284Z,14.97
2019-04-28T04:03:32.276Z,14.56
2019-04-28T04:04:32.410Z,14.96
2019-04-28T04:05:42.913Z,13.87
2019-04-28T04:06:32.263Z,13.87
2019-04-28T04:07:32.234Z,14.97
2019-04-28T04:08:32.222Z,14.76
2019-04-28T04:09:32.210Z,14.56
2019-04-28T04:10:32.240Z,14.77
2019-04-28T04:11:32.196Z,14.97
2019-04-28T04:12:32.182Z,14.56
2019-04-28T04:13:33.060Z,14.76
2019-04-28T04:14:32.152Z,14.06
2019-04-28T04:15:32.143Z,15.07
2019-04-28T04:16:32.174Z,14.67
2019-04-28T04:17:33.640Z,14.67
2019-04-28T04:18:32.112Z,14.47
2019-04-28T04:19:32.106Z,14.97
2019-04-28T04:20:32.094Z,14.56
2019-04-28T04:21:32.083Z,13.86
2019-04-28T04:22:32.172Z,14.76
2019-04-28T04:23:32.056Z,14.86
2019-04-28T04:24:32.053Z,14.56
2019-04-28T04:25:32.037Z,14.16
2019-04-28T04:26:33.608Z,14.56
2019-04-28T04:27:32.017Z,14.76
2019-04-28T04:28:32.042Z,14.97
2019-04-28T04:29:31.990Z,14.96
2019-04-28T04:30:31.982Z,14.57
2019-04-28T04:31:32.153Z,13.37
2019-04-28T04:32:34.077Z,14.97
2019-04-28T04:33:31.955Z,14.86
2019-04-28T04:34:31.976Z,13.56
2019-04-28T04:35:31.931Z,13.56
2019-04-28T04:36:42.376Z,13.67
2019-04-28T04:37:31.911Z,13.96
2019-04-28T04:38:31.899Z,13.37
2019-04-28T04:39:31.883Z,13.56
2019-04-28T04:40:32.104Z,13.96
2019-04-28T04:41:31.861Z,13.37
2019-04-28T04:42:31.849Z,14.06
2019-04-28T04:43:31.845Z,14.06
2019-04-28T04:44:31.836Z,13.96
2019-04-28T04:45:31.835Z,13.96
2019-04-28T04:46:31.817Z,13.86
2019-04-28T04:47:32.933Z,14.26
2019-04-28T04:48:31.796Z,13.67
2019-04-28T04:49:31.818Z,13.67
2019-04-28T04:50:31.772Z,13.67
2019-04-28T04:51:31.793Z,13.96
2019-04-28T04:52:31.749Z,14.06
2019-04-28T04:53:31.740Z,13.86
2019-04-28T04:54:32.762Z,13.86
2019-04-28T04:55:31.714Z,13.76
2019-04-28T04:56:31.700Z,13.67
2019-04-28T04:57:32.663Z,13.76
2019-04-28T04:58:31.683Z,13.96
2019-04-28T04:59:31.667Z,13.67
2019-04-28T05:00:31.660Z,14.16
2019-04-28T05:01:31.655Z,14.06
2019-04-28T05:02:33.094Z,13.56
2019-04-28T05:03:31.638Z,14.26
2019-04-28T05:04:31.611Z,13.56
2019-04-28T05:05:31.611Z,14.06
2019-04-28T05:06:31.590Z,13.96
2019-04-28T05:07:41.946Z,13.76
2019-04-28T05:08:31.567Z,13.96
2019-04-28T05:09:31.592Z,13.96
2019-04-28T05:10:31.546Z,14.36
2019-04-28T05:11:31.537Z,13.76
2019-04-28T05:12:31.527Z,13.56
2019-04-28T05:13:31.518Z,13.76
2019-04-28T05:14:31.506Z,13.37
2019-04-28T05:15:31.510Z,13.56
2019-04-28T05:16:31.485Z,13.56
2019-04-28T05:17:31.472Z,13.46
2019-04-28T05:18:31.459Z,13.76
2019-04-28T05:19:32.432Z,13.96
2019-04-28T05:20:31.445Z,13.66
2019-04-28T05:21:33.492Z,13.96
2019-04-28T05:22:31.417Z,14.06
2019-04-28T05:23:31.422Z,13.76
2019-04-28T05:24:31.398Z,14.06
2019-04-28T05:25:32.609Z,13.76
2019-04-28T05:26:31.390Z,14.06
2019-04-28T05:27:32.538Z,13.37
2019-04-28T05:28:36.397Z,13.85
2019-04-28T05:29:32.340Z,13.85
2019-04-28T05:30:34.919Z,13.66
2019-04-28T05:31:32.362Z,13.76
2019-04-28T05:32:42.464Z,13.86
2019-04-28T05:33:34.030Z,13.86
2019-04-28T05:34:31.294Z,13.46
2019-04-28T05:35:31.279Z,13.46
2019-04-28T05:36:40.755Z,13.67
2019-04-28T05:37:32.292Z,13.16
2019-04-28T05:38:43.150Z,13.37
2019-04-28T05:39:31.233Z,14.06
2019-04-28T05:40:31.230Z,13.96
2019-04-28T05:41:31.216Z,14.06
2019-04-28T05:42:31.205Z,13.17
2019-04-28T05:43:31.233Z,13.46
2019-04-28T05:44:32.079Z,13.76
2019-04-28T05:45:32.225Z,13.26
2019-04-28T05:46:31.157Z,13.76
2019-04-28T05:47:31.146Z,13.76
2019-04-28T05:48:31.140Z,12.96
2019-04-28T05:49:31.150Z,13.56
2019-04-28T05:50:31.120Z,13.26
2019-04-28T05:51:31.106Z,13.26
2019-04-28T05:52:31.110Z,13.36
2019-04-28T05:53:31.080Z,13.56
2019-04-28T05:54:31.482Z,13.36
2019-04-28T05:55:31.077Z,13.06
2019-04-28T05:56:31.055Z,13.06
2019-04-28T05:57:31.037Z,13.46
2019-04-28T05:58:31.030Z,13.26
2019-04-28T05:59:31.017Z,13.36
2019-04-28T06:00:31.046Z,13.26
2019-04-28T06:01:30.994Z,13.56
2019-04-28T06:02:30.983Z,13.16
2019-04-28T06:03:30.973Z,13.56
2019-04-28T06:04:30.967Z,13.26
2019-04-28T06:05:31.967Z,13.36
2019-04-28T06:06:30.956Z,13.06
2019-04-28T06:07:30.933Z,13.56
2019-04-28T06:08:30.919Z,13.26
2019-04-28T06:09:41.002Z,13.37
2019-04-28T06:10:30.904Z,13.06
2019-04-28T06:11:30.912Z,13.26
2019-04-28T06:12:32.009Z,13.46
2019-04-28T06:13:30.870Z,13.56
2019-04-28T06:14:30.854Z,13.56
2019-04-28T06:15:30.849Z,13.56
2019-04-28T06:16:30.832Z,13.16
2019-04-28T06:17:30.841Z,13.06
2019-04-28T06:18:30.879Z,12.86
2019-04-28T06:19:30.800Z,12.86
2019-04-28T06:20:30.793Z,13.16
2019-04-28T06:21:30.786Z,12.57
2019-04-28T06:22:30.775Z,13.17
2019-04-28T06:23:30.801Z,12.46
2019-04-28T06:24:30.748Z,13.06
2019-04-28T06:25:30.780Z,12.86
2019-04-28T06:26:30.732Z,12.76
2019-04-28T06:27:32.628Z,12.76
2019-04-28T06:28:30.710Z,12.76
2019-04-28T06:29:30.781Z,12.95
2019-04-28T06:30:30.683Z,12.86
2019-04-28T06:31:30.675Z,12.66
2019-04-28T06:32:30.659Z,12.86
2019-04-28T06:33:30.653Z,12.76
2019-04-28T06:34:30.642Z,13.06
2019-04-28T06:35:30.668Z,12.66
2019-04-28T06:36:30.615Z,12.76
2019-04-28T06:37:30.643Z,12.86
2019-04-28T06:38:30.599Z,13.46
2019-04-28T06:39:30.589Z,12.96
2019-04-28T06:40:41.118Z,13.06
2019-04-28T06:41:30.566Z,13.16
2019-04-28T06:42:30.554Z,13.36
2019-04-28T06:43:30.547Z,13.06
2019-04-28T06:44:30.534Z,13.26
2019-04-28T06:45:30.538Z,12.96
2019-04-28T06:46:30.525Z,13.06
2019-04-28T06:47:30.501Z,13.06
2019-04-28T06:48:30.488Z,13.06
2019-04-28T06:49:30.475Z,12.96
2019-04-28T06:50:30.470Z,12.36
2019-04-28T06:51:30.490Z,12.76
2019-04-28T06:52:30.449Z,12.36
2019-04-28T06:53:30.441Z,12.46
2019-04-28T06:54:30.427Z,12.66
2019-04-28T06:55:30.415Z,12.76
2019-04-28T06:56:30.400Z,12.46
2019-04-28T06:57:30.428Z,12.76
2019-04-28T06:58:30.388Z,12.96
2019-04-28T06:59:30.370Z,12.76
2019-04-28T07:00:30.362Z,12.16
2019-04-28T07:01:30.348Z,11.96
2019-04-28T07:02:30.339Z,12.06
2019-04-28T07:03:30.343Z,11.96
2019-04-28T07:04:30.313Z,11.96
2019-04-28T07:05:30.312Z,12.36
2019-04-28T07:06:30.297Z,12.16
2019-04-28T07:07:30.281Z,12.16
2019-04-28T07:08:30.311Z,12.16
2019-04-28T07:09:30.361Z,12.06
2019-04-28T07:10:30.253Z,12.16
2019-04-28T07:11:42.102Z,12.26
2019-04-28T07:12:30.228Z,11.86
2019-04-28T07:13:30.220Z,12.05
2019-04-28T07:14:30.226Z,11.86
2019-04-28T07:15:30.199Z,11.86
2019-04-28T07:16:30.183Z,12.06
2019-04-28T07:17:30.174Z,11.86
2019-04-28T07:18:30.163Z,12.26
2019-04-28T07:19:30.154Z,12.06
2019-04-28T07:20:30.177Z,12.06
2019-04-28T07:21:30.129Z,11.86
2019-04-28T07:22:30.122Z,12.46
2019-04-28T07:23:30.109Z,12.56
2019-04-28T07:24:30.102Z,11.96
2019-04-28T07:25:30.096Z,12.06
2019-04-28T07:26:30.115Z,12.16
2019-04-28T07:27:30.067Z,12.36
2019-04-28T07:28:30.053Z,12.06
2019-04-28T07:29:30.055Z,12.26
2019-04-28T07:30:30.045Z,12.56
2019-04-28T07:31:30.026Z,12.56
2019-04-28T07:32:30.053Z,12.26
2019-04-28T07:33:35.776Z,12.46
2019-04-28T07:34:30.989Z,12.56
2019-04-28T07:35:29.981Z,12.46
2019-04-28T07:36:29.971Z,12.46
2019-04-28T07:37:29.964Z,12.36
2019-04-28T07:38:29.988Z,12.26
2019-04-28T07:39:29.937Z,11.96
2019-04-28T07:40:29.925Z,12.06
2019-04-28T07:41:29.915Z,12.26
2019-04-28T07:42:40.806Z,12.36
2019-04-28T07:43:29.893Z,12.36
2019-04-28T07:44:29.894Z,12.26
2019-04-28T07:45:29.872Z,11.86
2019-04-28T07:46:29.866Z,12.36
2019-04-28T07:47:29.852Z,12.56
2019-04-28T07:48:29.847Z,11.96
2019-04-28T07:49:29.868Z,12.26
2019-04-28T07:50:29.827Z,12.26
2019-04-28T07:51:29.807Z,12.56
2019-04-28T07:52:29.796Z,12.55
2019-04-28T07:53:29.786Z,12.36
2019-04-28T07:54:29.776Z,12.46
2019-04-28T07:55:29.790Z,12.26
2019-04-28T07:56:29.758Z,12.26
2019-04-28T07:57:29.748Z,12.36
2019-04-28T07:58:29.733Z,12.06
2019-04-28T07:59:29.728Z,12.26
2019-04-28T08:00:29.718Z,11.96
2019-04-28T08:01:29.740Z,12.26
2019-04-28T08:02:29.694Z,12.26
2019-04-28T08:03:29.682Z,11.96
2019-04-28T08:04:29.668Z,12.56
2019-04-28T08:05:29.661Z,12.56
2019-04-28T08:06:29.647Z,12.56
2019-04-28T08:07:29.654Z,12.46
2019-04-28T08:08:29.625Z,12.26
2019-04-28T08:09:29.620Z,12.56
2019-04-28T08:10:29.604Z,12.46
2019-04-28T08:11:29.594Z,12.46
2019-04-28T08:12:29.627Z,12.26
2019-04-28T08:13:40.177Z,11.76
2019-04-28T08:14:29.561Z,12.56
2019-04-28T08:15:29.558Z,11.96
2019-04-28T08:16:29.548Z,12.06
2019-04-28T08:17:29.536Z,12.26
2019-04-28T08:18:31.639Z,11.56
2019-04-28T08:19:29.508Z,11.86
2019-04-28T08:20:29.500Z,11.76
2019-04-28T08:21:29.492Z,12.06
2019-04-28T08:22:29.477Z,11.96
2019-04-28T08:23:29.463Z,11.96
2019-04-28T08:24:29.496Z,12.26
2019-04-28T08:25:29.442Z,11.76
2019-04-28T08:26:29.437Z,11.46
2019-04-28T08:27:29.421Z,11.66
2019-04-28T08:28:29.416Z,11.56
2019-04-28T08:29:29.400Z,11.36
2019-04-28T08:30:29.400Z,11.46
2019-04-28T08:31:29.386Z,11.36
2019-04-28T08:32:29.369Z,11.46
2019-04-28T08:33:29.469Z,11.36
2019-04-28T08:34:29.357Z,11.25
2019-04-28T08:35:29.352Z,11.25
2019-04-28T08:36:29.340Z,11.15
2019-04-28T08:37:29.321Z,11.75
2019-04-28T08:38:29.307Z,11.66
2019-04-28T08:39:29.296Z,11.85
2019-04-28T08:40:29.289Z,11.65
2019-04-28T08:41:29.319Z,11.65
2019-04-28T08:42:29.264Z,11.25
2019-04-28T08:43:29.256Z,11.65
2019-04-28T08:44:39.813Z,10.86
2019-04-28T08:45:29.235Z,11.45
2019-04-28T08:46:29.224Z,11.75
2019-04-28T08:47:29.252Z,11.65
2019-04-28T08:48:29.200Z,11.55
2019-04-28T08:49:29.193Z,10.85
2019-04-28T08:50:29.185Z,11.05
2019-04-28T08:51:29.178Z,10.85
2019-04-28T08:52:29.157Z,10.75
2019-04-28T08:53:29.160Z,10.85
2019-04-28T08:54:29.139Z,11.35
2019-04-28T08:55:29.128Z,11.45
2019-04-28T08:56:29.117Z,11.15
2019-04-28T08:57:29.104Z,11.15
2019-04-28T08:58:29.133Z,11.35
2019-04-28T08:59:29.086Z,11.15
2019-04-28T09:00:29.096Z,11.25
2019-04-28T09:01:29.067Z,11.15
2019-04-28T09:02:29.049Z,11.35
2019-04-28T09:03:29.039Z,11.15
2019-04-28T09:04:29.064Z,11.25
2019-04-28T09:05:29.026Z,11.15
2019-04-28T09:06:29.012Z,10.96
2019-04-28T09:07:28.994Z,11.25
2019-04-28T09:08:28.987Z,11.25
2019-04-28T09:09:28.979Z,11.65
2019-04-28T09:10:28.989Z,11.15
2019-04-28T09:11:28.956Z,11.25
2019-04-28T09:12:28.951Z,11.25
2019-04-28T09:13:28.933Z,11.15
2019-04-28T09:14:28.927Z,10.96
2019-04-28T09:15:39.798Z,10.85
2019-04-28T09:16:28.901Z,10.75
2019-04-28T09:17:28.900Z,10.75
2019-04-28T09:18:28.881Z,10.96
2019-04-28T09:19:28.878Z,10.85
2019-04-28T09:20:28.857Z,11.05
2019-04-28T09:21:28.867Z,10.75
2019-04-28T09:22:28.835Z,10.55
2019-04-28T09:23:28.827Z,10.75
2019-04-28T09:24:28.815Z,10.66
2019-04-28T09:25:28.811Z,10.75
2019-04-28T09:26:28.797Z,10.66
2019-04-28T09:27:28.798Z,10.85
2019-04-28T09:28:28.779Z,10.85
2019-04-28T09:29:28.765Z,11.05
2019-04-28T09:30:28.757Z,11.25
2019-04-28T09:31:28.740Z,11.25
2019-04-28T09:32:28.766Z,11.25
2019-04-28T09:33:28.720Z,10.96
2019-04-28T09:34:28.830Z,11.05
2019-04-28T09:35:28.697Z,11.05
2019-04-28T09:36:28.688Z,11.35
2019-04-28T09:37:28.677Z,11.15
2019-04-28T09:38:28.705Z,11.05
2019-04-28T09:39:28.659Z,11.15
2019-04-28T09:40:28.643Z,11.05
2019-04-28T09:41:28.636Z,11.25
2019-04-28T09:42:28.624Z,11.05
2019-04-28T09:43:28.614Z,11.35
2019-04-28T09:44:28.619Z,11.25
2019-04-28T09:45:28.589Z,11.15
2019-04-28T09:46:38.527Z,10.55
2019-04-28T09:47:28.572Z,10.75
2019-04-28T09:48:28.564Z,11.15
2019-04-28T09:49:28.554Z,11.15
2019-04-28T09:50:28.553Z,10.75
2019-04-28T09:51:28.528Z,10.75
2019-04-28T09:52:28.517Z,10.45
2019-04-28T09:53:28.510Z,10.75
2019-04-28T09:54:28.494Z,10.75
2019-04-28T09:55:28.504Z,10.75
2019-04-28T09:56:28.482Z,10.94
2019-04-28T09:57:28.470Z,10.95
2019-04-28T09:58:28.456Z,10.64
2019-04-28T09:59:28.440Z,10.85
2019-04-28T10:00:28.437Z,10.35
2019-04-28T10:01:28.465Z,10.25
2019-04-28T10:02:28.415Z,10.25
2019-04-28T10:03:28.401Z,10.64
2019-04-28T10:04:40.712Z,10.74
2019-04-28T10:05:29.403Z,10.35
2019-04-28T10:06:28.371Z,9.85
2019-04-28T10:07:28.368Z,10.55
2019-04-28T10:08:28.347Z,10.74
2019-04-28T10:09:28.344Z,10.74
2019-04-28T10:10:28.332Z,9.95
2019-04-28T10:11:30.682Z,10.55
2019-04-28T10:12:28.306Z,10.15
2019-04-28T10:13:28.299Z,9.95
2019-04-28T10:14:28.287Z,9.95
2019-04-28T10:15:28.271Z,10.44
2019-04-28T10:16:28.263Z,10.15
2019-04-28T10:17:39.346Z,10.15
2019-04-28T10:18:28.249Z,10.14
2019-04-28T10:19:28.232Z,10.14
2019-04-28T10:20:28.221Z,9.94
2019-04-28T10:21:28.210Z,10.14
2019-04-28T10:22:28.206Z,10.14
2019-04-28T10:23:28.233Z,10.04
2019-04-28T10:24:28.177Z,9.94
2019-04-28T10:25:28.170Z,10.04
2019-04-28T10:26:28.156Z,9.94
2019-04-28T10:27:28.149Z,9.75
2019-04-28T10:28:28.136Z,10.24
2019-04-28T10:29:28.197Z,9.75
2019-04-28T10:30:28.111Z,10.04
2019-04-28T10:31:28.101Z,9.94
2019-04-28T10:32:28.098Z,9.84
2019-04-28T10:33:28.085Z,10.24
2019-04-28T10:34:28.069Z,10.04
2019-04-28T10:35:28.072Z,10.04
2019-04-28T10:36:28.050Z,10.04
2019-04-28T10:37:28.037Z,10.14
2019-04-28T10:38:28.034Z,9.94
2019-04-28T10:39:28.026Z,10.04
2019-04-28T10:40:28.042Z,10.14
2019-04-28T10:41:27.994Z,10.04
2019-04-28T10:42:27.984Z,10.04
2019-04-28T10:43:27.978Z,10.04
2019-04-28T10:44:27.969Z,9.94
2019-04-28T10:45:27.951Z,9.75
2019-04-28T10:46:27.991Z,9.94
2019-04-28T10:47:27.934Z,9.94
2019-04-28T10:48:37.968Z,10.04
2019-04-28T10:49:27.916Z,10.74
2019-04-28T10:50:27.905Z,9.75
2019-04-28T10:51:27.892Z,9.84
2019-04-28T10:52:27.928Z,10.04
2019-04-28T10:53:27.868Z,10.04
2019-04-28T10:54:27.861Z,10.04
2019-04-28T10:55:27.853Z,9.84
2019-04-28T10:56:27.838Z,10.24
2019-04-28T10:57:27.829Z,10.34
2019-04-28T10:58:27.864Z,10.14
2019-04-28T10:59:27.802Z,10.14
2019-04-28T11:00:27.794Z,10.14
2019-04-28T11:01:27.786Z,10.04
2019-04-28T11:02:27.778Z,10.14
2019-04-28T11:03:27.761Z,10.04
2019-04-28T11:04:27.787Z,10.44
2019-04-28T11:05:27.767Z,10.44
2019-04-28T11:06:27.728Z,10.34
2019-04-28T11:07:27.775Z,9.85
2019-04-28T11:08:27.710Z,10.44
2019-04-28T11:09:30.686Z,9.75
2019-04-28T11:10:27.893Z,10.74
2019-04-28T11:11:27.683Z,10.74
2019-04-28T11:12:27.683Z,10.74
2019-04-28T11:13:27.657Z,10.14
2019-04-28T11:14:27.662Z,10.74
2019-04-28T11:15:27.647Z,10.64
2019-04-28T11:16:27.619Z,10.54
2019-04-28T11:17:27.612Z,10.74
2019-04-28T11:18:27.601Z,10.14
2019-04-28T11:19:37.392Z,10.24
2019-04-28T11:20:27.588Z,10.74
2019-04-28T11:21:27.580Z,10.74
2019-04-28T11:22:27.555Z,10.15
2019-04-28T11:23:27.547Z,10.34
2019-04-28T11:24:27.536Z,10.15
2019-04-28T11:25:27.527Z,10.44
2019-04-28T11:26:27.549Z,10.74
2019-04-28T11:27:27.508Z,10.35
2019-04-28T11:28:27.496Z,10.94
2019-04-28T11:29:27.480Z,10.94
2019-04-28T11:30:27.477Z,10.64
2019-04-28T11:31:27.465Z,10.35
2019-04-28T11:32:27.471Z,10.35
2019-04-28T11:33:27.443Z,10.74
2019-04-28T11:34:27.428Z,10.94
2019-04-28T11:35:27.472Z,10.44
2019-04-28T11:36:27.411Z,10.15
2019-04-28T11:37:27.397Z,10.44
2019-04-28T11:38:27.432Z,10.14
2019-04-28T11:39:27.380Z,10.94
2019-04-28T11:40:27.363Z,10.64
2019-04-28T11:41:27.354Z,10.34
2019-04-28T11:42:27.342Z,10.84
2019-04-28T11:43:27.334Z,10.94
2019-04-28T11:44:27.364Z,10.34
2019-04-28T11:45:27.315Z,10.74
2019-04-28T11:46:27.306Z,9.94
2019-04-28T11:47:27.291Z,10.04
2019-04-28T11:48:27.280Z,10.34
2019-04-28T11:49:27.277Z,10.74
2019-04-28T11:50:37.500Z,10.14
2019-04-28T11:51:27.245Z,10.14
2019-04-28T11:52:27.241Z,9.74
2019-04-28T11:53:27.226Z,10.43
2019-04-28T11:54:27.212Z,9.74
2019-04-28T11:55:27.203Z,10.13
2019-04-28T11:56:27.202Z,10.13
2019-04-28T11:57:27.189Z,9.93
2019-04-28T11:58:27.172Z,10.13
2019-04-28T11:59:27.165Z,10.03
2019-04-28T12:00:27.153Z,9.83
2019-04-28T12:01:27.160Z,10.03
2019-04-28T12:02:27.137Z,9.73
2019-04-28T12:03:27.127Z,10.03
2019-04-28T12:04:27.117Z,10.03
2019-04-28T12:05:34.338Z,9.93
2019-04-28T12:06:28.157Z,9.93
2019-04-28T12:07:27.096Z,10.22
2019-04-28T12:08:27.069Z,10.13
2019-04-28T12:09:27.058Z,10.22
2019-04-28T12:10:27.044Z,10.32
2019-04-28T12:11:27.041Z,10.32
2019-04-28T12:12:27.023Z,10.13
2019-04-28T12:13:27.035Z,9.92
2019-04-28T12:14:27.002Z,10.22
2019-04-28T12:15:26.997Z,10.31
2019-04-28T12:16:26.990Z,10.31
2019-04-28T12:17:26.969Z,10.31
2019-04-28T12:18:26.961Z,10.52
2019-04-28T12:19:26.958Z,10.31
2019-04-28T12:20:26.938Z,10.31
2019-04-28T12:21:38.005Z,10.71
2019-04-28T12:22:26.917Z,10.51
2019-04-28T12:23:26.944Z,10.31
2019-04-28T12:24:26.894Z,10.41
2019-04-28T12:25:26.890Z,10.51
2019-04-28T12:26:26.880Z,10.71
2019-04-28T12:27:26.871Z,10.51
2019-04-28T12:28:26.858Z,10.41
2019-04-28T12:29:26.939Z,10.51
2019-04-28T12:30:26.838Z,10.51
2019-04-28T12:31:26.820Z,10.21
2019-04-28T12:32:26.813Z,10.51
2019-04-28T12:33:26.808Z,10.21
2019-04-28T12:34:26.797Z,10.41
2019-04-28T12:35:26.818Z,10.50
2019-04-28T12:36:26.773Z,10.50
2019-04-28T12:37:26.760Z,10.41
2019-04-28T12:38:26.748Z,10.50
2019-04-28T12:39:26.744Z,10.50
2019-04-28T12:40:26.731Z,10.51
2019-04-28T12:41:26.881Z,10.41
2019-04-28T12:42:26.712Z,10.21
2019-04-28T12:43:26.702Z,10.51
2019-04-28T12:44:26.686Z,10.60
2019-04-28T12:45:34.821Z,10.51
2019-04-28T12:46:27.671Z,10.31
2019-04-28T12:47:26.673Z,10.21
2019-04-28T12:48:26.643Z,10.71
2019-04-28T12:49:26.640Z,10.51
2019-04-28T12:50:26.625Z,10.31
2019-04-28T12:51:26.610Z,10.50
2019-04-28T12:52:37.053Z,10.50
2019-04-28T12:53:26.588Z,10.60
2019-04-28T12:54:26.589Z,10.31